Terminal Aerodrome Forecast
Issued by NWS Cleveland, OH

Home | Current Version | Previous Version | Text Only | Print | Product List | Glossary Off
Versions: 1 2 3 4 5 6 7 8 9 10 11 12 13 14 15 16 17 18

000
FTUS41 KCLE 180200 AAA
TAFCAK
TAF AMD
KCAK 180247Z 1803/1824 25015KT P6SM SCT025 BKN035
      TEMPO 1803/1805 2SM -SN BKN025 OVC035
     FM181200 24015G25KT P6SM BKN025 OVC035=

USA.gov is the U.S. government's official web portal to all federal, state and local government web resources and services.